Time;durP1;ratioP1;P1;durP2;ratioP2;P2;SDS_P1;SDS_P2;PMS_P1;PMS_P2;Temp;Humidity;BMP_temperature;BMP_pressure;BME280_temperature;BME280_humidity;BME280_pressure;Samples;Min_cycle;Max_cycle;Signal;HPM_P1;HPM_P2
2022/07/06 00:00:21;;;;;;;4.63;0.85;;;21.40;99.90;;;;;;4160976;28;20055;-43
2022/07/06 00:02:42;;;;;;;3.47;0.80;;;21.30;99.90;;;;;;4161274;28;20099;-42
2022/07/06 00:05:03;;;;;;;1.33;1.08;;;21.10;99.90;;;;;;4161284;28;20455;-42
2022/07/06 00:07:24;;;;;;;2.05;1.05;;;21.10;99.90;;;;;;4160592;28;20354;-42
2022/07/06 00:09:44;;;;;;;0.95;0.80;;;21.00;99.90;;;;;;4160905;28;20567;-43
2022/07/06 00:12:06;;;;;;;3.90;1.33;;;20.80;99.90;;;;;;4161077;28;20052;-43
2022/07/06 00:14:26;;;;;;;1.55;1.00;;;20.70;99.90;;;;;;4160729;28;20052;-43
2022/07/06 00:16:47;;;;;;;2.40;1.20;;;20.80;99.90;;;;;;4160585;28;20051;-43
2022/07/06 00:19:10;;;;;;;2.53;0.80;;;20.80;99.90;;;;;;4160499;28;20825;-43
2022/07/06 00:21:33;;;;;;;3.15;0.80;;;21.00;99.90;;;;;;4161108;28;20405;-41
2022/07/06 00:23:55;;;;;;;0.95;0.95;;;21.00;99.90;;;;;;4160723;28;20057;-42
2022/07/06 00:26:16;;;;;;;2.85;0.88;;;21.10;99.90;;;;;;4161158;28;20435;-43
2022/07/06 00:28:36;;;;;;;2.30;1.10;;;21.00;99.90;;;;;;4161090;28;20111;-42
2022/07/06 00:30:57;;;;;;;1.90;0.70;;;20.80;99.90;;;;;;4144728;28;20135;-43
2022/07/06 00:33:18;;;;;;;1.30;0.70;;;20.70;99.90;;;;;;4156625;28;20095;-42
2022/07/06 00:35:39;;;;;;;2.70;0.80;;;20.60;99.90;;;;;;4160463;28;20044;-43
2022/07/06 00:38:01;;;;;;;0.77;0.77;;;20.60;99.90;;;;;;4160829;28;20408;-42
2022/07/06 00:40:22;;;;;;;1.10;1.00;;;20.80;99.90;;;;;;4143296;28;20100;-42
2022/07/06 00:42:47;;;;;;;8.48;0.90;;;20.70;99.90;;;;;;4154919;28;20085;-43
2022/07/06 00:45:09;;;;;;;2.97;0.90;;;20.40;99.90;;;;;;4155035;28;20091;-43
2022/07/06 00:47:30;;;;;;;2.50;1.07;;;20.40;99.90;;;;;;4161191;28;20096;-42
2022/07/06 00:52:29;;;;;;;4.00;0.80;;;20.70;99.90;;;;;;4160643;28;20876;-43
2022/07/06 00:54:51;;;;;;;2.47;0.80;;;20.70;99.90;;;;;;4160387;28;20591;-41
2022/07/06 00:57:12;;;;;;;0.70;0.70;;;20.60;99.90;;;;;;4160782;28;20076;-41
2022/07/06 00:59:33;;;;;;;1.27;1.17;;;20.70;99.90;;;;;;4144417;28;20057;-41
2022/07/06 01:01:54;;;;;;;3.33;1.10;;;20.60;99.90;;;;;;4155072;28;20048;-42
2022/07/06 01:04:15;;;;;;;0.98;0.88;;;20.50;99.90;;;;;;4160717;28;20100;-42
2022/07/06 01:06:36;;;;;;;2.47;1.00;;;20.40;99.90;;;;;;4160460;28;20411;-43
2022/07/06 01:08:57;;;;;;;2.80;1.45;;;20.40;99.90;;;;;;4144611;28;20136;-42
2022/07/06 01:11:19;;;;;;;1.63;0.80;;;20.30;99.90;;;;;;4153517;28;20107;-41
2022/07/06 01:13:41;;;;;;;3.10;1.10;;;20.40;99.90;;;;;;4160270;28;20047;-42
2022/07/06 01:16:01;;;;;;;4.38;1.27;;;20.40;99.90;;;;;;4160309;28;20056;-42
2022/07/06 01:18:22;;;;;;;2.53;0.90;;;20.20;99.90;;;;;;4160431;28;20137;-41
2022/07/06 01:20:44;;;;;;;3.70;1.27;;;20.00;99.90;;;;;;4163839;28;20079;-42
2022/07/06 01:23:05;;;;;;;3.20;1.05;;;20.20;99.90;;;;;;4163599;28;20052;-42
2022/07/06 01:25:26;;;;;;;4.60;2.28;;;20.20;99.90;;;;;;4163893;28;20123;-42
2022/07/06 01:27:47;;;;;;;2.85;1.25;;;20.20;99.90;;;;;;4162630;28;20052;-42
2022/07/06 01:30:11;;;;;;;1.77;0.80;;;20.00;99.90;;;;;;4163310;28;20072;-43
2022/07/06 01:32:31;;;;;;;0.98;0.85;;;20.00;99.90;;;;;;4164167;28;20049;-42
2022/07/06 01:34:53;;;;;;;2.53;1.60;;;20.10;99.90;;;;;;4163432;28;20104;-43
2022/07/06 01:37:13;;;;;;;2.92;0.93;;;20.00;99.90;;;;;;4163197;28;20111;-41
2022/07/06 01:39:34;;;;;;;1.60;0.90;;;19.90;99.90;;;;;;4163330;28;20048;-42
2022/07/06 01:41:55;;;;;;;3.28;0.90;;;19.90;99.90;;;;;;4162906;28;20135;-41
2022/07/06 01:44:15;;;;;;;2.88;0.95;;;19.90;99.90;;;;;;4159359;28;20677;-43
2022/07/06 01:46:36;;;;;;;1.55;1.10;;;19.90;99.90;;;;;;4163013;28;20059;-42
2022/07/06 01:48:56;;;;;;;5.18;0.90;;;19.90;99.90;;;;;;4163097;28;20107;-42
2022/07/06 01:51:17;;;;;;;1.48;1.00;;;19.90;99.90;;;;;;4146809;28;20061;-42
2022/07/06 01:53:39;;;;;;;3.47;1.17;;;19.80;99.90;;;;;;4146788;28;20124;-42
2022/07/06 01:56:00;;;;;;;0.90;0.90;;;19.90;99.90;;;;;;4156827;28;20053;-42
2022/07/06 01:58:21;;;;;;;1.40;0.90;;;20.00;99.90;;;;;;4162995;28;20485;-44
2022/07/06 02:00:43;;;;;;;1.00;1.00;;;19.90;99.90;;;;;;4163067;28;20496;-42
2022/07/06 02:03:04;;;;;;;2.08;0.80;;;19.90;99.90;;;;;;4163247;28;20294;-42
2022/07/06 02:05:25;;;;;;;2.78;1.00;;;19.70;99.90;;;;;;4153473;28;20056;-42
2022/07/06 02:07:45;;;;;;;1.55;1.10;;;19.50;99.90;;;;;;4154000;28;20064;-42
2022/07/06 02:10:07;;;;;;;5.07;1.08;;;19.40;99.90;;;;;;4163061;28;20436;-42
2022/07/06 02:12:28;;;;;;;1.52;1.40;;;19.50;99.90;;;;;;4162666;28;20052;-42
2022/07/06 02:14:49;;;;;;;1.00;1.00;;;19.60;99.90;;;;;;4162656;28;20091;-42
2022/07/06 02:17:10;;;;;;;2.95;1.70;;;19.60;99.90;;;;;;4162535;28;20155;-43
2022/07/06 02:19:31;;;;;;;3.30;1.00;;;19.60;99.90;;;;;;4163143;28;20064;-42
2022/07/06 02:21:52;;;;;;;1.58;1.08;;;19.60;99.90;;;;;;4162560;28;20047;-41
2022/07/06 02:24:12;;;;;;;1.88;1.00;;;19.50;99.90;;;;;;4162633;28;20087;-43
2022/07/06 02:26:33;;;;;;;1.30;0.90;;;19.50;99.90;;;;;;4163070;28;20084;-43
2022/07/06 02:28:53;;;;;;;1.63;1.13;;;19.50;99.90;;;;;;4146147;28;20563;-42
2022/07/06 02:31:14;;;;;;;3.90;1.30;;;19.50;99.90;;;;;;4157391;28;20107;-41
2022/07/06 02:33:35;;;;;;;1.48;1.27;;;19.60;99.90;;;;;;4162515;28;20060;-42
2022/07/06 02:35:56;;;;;;;1.67;0.95;;;19.50;99.90;;;;;;4162244;28;20527;-41
2022/07/06 02:38:17;;;;;;;1.10;1.10;;;19.40;99.90;;;;;;4162884;28;20060;-42
2022/07/06 02:40:39;;;;;;;3.97;1.05;;;19.40;99.90;;;;;;4162269;28;20056;-42
2022/07/06 02:43:00;;;;;;;2.17;0.90;;;19.30;99.90;;;;;;4162416;28;20080;-42
2022/07/06 02:45:23;;;;;;;2.20;0.90;;;19.30;99.90;;;;;;4162679;28;20095;-42
2022/07/06 02:47:44;;;;;;;1.42;1.00;;;19.20;99.90;;;;;;4162282;28;20072;-41
2022/07/06 02:50:05;;;;;;;1.45;1.33;;;19.10;99.90;;;;;;4162341;28;20108;-41
2022/07/06 02:52:26;;;;;;;1.85;1.55;;;19.30;99.90;;;;;;4162386;28;20103;-42
2022/07/06 02:54:48;;;;;;;0.90;0.90;;;19.30;99.90;;;;;;4162503;28;20057;-42
2022/07/06 02:57:09;;;;;;;1.70;1.23;;;19.10;99.90;;;;;;4162202;28;20057;-42
2022/07/06 02:59:30;;;;;;;1.27;1.05;;;19.10;99.90;;;;;;4154817;28;20338;-41
2022/07/06 03:01:51;;;;;;;2.47;1.05;;;19.10;99.90;;;;;;4146110;28;20115;-42
2022/07/06 03:04:11;;;;;;;1.35;1.00;;;19.20;99.90;;;;;;4162225;28;20519;-42
2022/07/06 03:06:32;;;;;;;2.97;1.15;;;19.20;99.90;;;;;;4162272;28;20540;-43
2022/07/06 03:08:53;;;;;;;1.48;1.10;;;19.20;99.90;;;;;;4151557;28;20092;-43
2022/07/06 03:11:13;;;;;;;2.00;1.38;;;19.10;99.90;;;;;;4161791;28;20056;-43
2022/07/06 03:13:35;;;;;;;3.58;0.90;;;19.10;99.90;;;;;;4146065;28;20057;-42
2022/07/06 03:15:55;;;;;;;1.95;1.00;;;18.90;99.90;;;;;;4157110;28;20115;-43
2022/07/06 03:18:16;;;;;;;1.20;1.10;;;18.90;99.90;;;;;;4161506;28;20448;-42
2022/07/06 03:20:37;;;;;;;4.78;1.40;;;18.80;99.90;;;;;;4162318;28;20586;-42
2022/07/06 03:22:58;;;;;;;1.48;1.00;;;18.80;99.90;;;;;;4145817;28;20488;-42
2022/07/06 03:25:19;;;;;;;1.27;1.25;;;18.90;99.90;;;;;;4155684;28;20060;-42
2022/07/06 03:27:39;;;;;;;4.35;1.13;;;19.00;99.90;;;;;;4157732;28;20080;-42
2022/07/06 03:30:00;;;;;;;1.20;1.20;;;19.00;99.90;;;;;;4145627;28;20084;-42
2022/07/06 03:32:21;;;;;;;1.40;1.10;;;18.80;99.90;;;;;;4160152;28;20199;-42
2022/07/06 03:34:42;;;;;;;1.85;1.52;;;18.90;99.90;;;;;;4153453;28;20049;-42
2022/07/06 03:37:03;;;;;;;5.45;1.65;;;18.90;99.90;;;;;;4161230;28;20516;-42
2022/07/06 03:39:23;;;;;;;1.15;1.05;;;18.80;99.90;;;;;;4161812;28;20092;-42
2022/07/06 03:41:44;;;;;;;5.10;1.17;;;18.80;99.90;;;;;;4160865;28;20048;-43
2022/07/06 03:44:05;;;;;;;1.55;1.50;;;18.90;99.90;;;;;;4161529;28;20125;-41
2022/07/06 03:46:27;;;;;;;1.35;1.17;;;18.80;99.90;;;;;;4158694;28;20107;-44
2022/07/06 03:48:48;;;;;;;3.53;1.10;;;18.70;99.90;;;;;;4145010;28;20141;-43
2022/07/06 03:51:10;;;;;;;3.00;1.80;;;18.60;99.90;;;;;;4158024;28;20043;-43
2022/07/06 03:53:31;;;;;;;2.45;1.10;;;18.50;99.90;;;;;;4161331;28;20080;-42
2022/07/06 03:58:34;;;;;;;3.28;1.60;;;18.50;99.90;;;;;;4144809;28;20052;-41
2022/07/06 04:00:55;;;;;;;2.35;1.48;;;18.50;99.90;;;;;;4158884;28;20060;-41
2022/07/06 04:03:16;;;;;;;2.38;2.15;;;18.50;99.90;;;;;;4153957;28;20090;-42
2022/07/06 04:05:37;;;;;;;1.40;1.30;;;18.50;99.90;;;;;;4145248;28;20045;-42
2022/07/06 04:07:57;;;;;;;4.70;1.95;;;18.50;99.90;;;;;;4161053;28;20594;-42
2022/07/06 04:10:18;;;;;;;2.78;1.67;;;18.50;99.90;;;;;;4160966;28;20051;-41
2022/07/06 04:12:43;;;;;;;2.13;1.92;;;18.50;99.90;;;;;;4150491;28;20056;-42
2022/07/06 04:15:04;;;;;;;2.10;1.65;;;18.60;99.90;;;;;;4160214;28;20052;-43
2022/07/06 04:20:04;;;;;;;3.53;1.42;;;18.60;99.90;;;;;;4158821;28;20138;-41
2022/07/06 04:22:25;;;;;;;2.72;1.20;;;18.70;99.90;;;;;;4151840;28;20254;-41
2022/07/06 04:24:45;;;;;;;2.40;1.52;;;18.70;99.90;;;;;;4161225;28;20132;-42
2022/07/06 04:27:06;;;;;;;1.50;1.33;;;18.90;99.90;;;;;;4160932;28;20489;-41
2022/07/06 04:29:27;;;;;;;2.97;1.30;;;18.90;99.90;;;;;;4156083;28;20048;-42
2022/07/06 04:31:47;;;;;;;3.50;1.35;;;19.00;99.90;;;;;;4157334;28;20476;-45
2022/07/06 04:34:08;;;;;;;1.83;1.70;;;18.90;99.90;;;;;;4157153;28;20072;-42
2022/07/06 04:36:29;;;;;;;2.25;1.60;;;18.80;99.90;;;;;;4152052;28;20061;-42
2022/07/06 04:38:50;;;;;;;1.50;1.25;;;18.80;99.90;;;;;;4155553;28;20663;-42
2022/07/06 04:41:10;;;;;;;2.70;1.35;;;18.70;99.90;;;;;;4160860;28;20123;-42
2022/07/06 04:43:36;;;;;;;3.55;1.63;;;18.90;99.90;;;;;;4160748;28;20144;-42
2022/07/06 04:45:56;;;;;;;2.72;1.27;;;19.00;99.90;;;;;;4144477;28;20104;-42
2022/07/06 04:48:17;;;;;;;3.63;1.40;;;19.10;99.90;;;;;;4154363;28;20052;-43
2022/07/06 04:50:38;;;;;;;2.88;1.75;;;19.00;99.90;;;;;;4160881;28;20592;-42
2022/07/06 04:52:59;;;;;;;2.45;1.30;;;19.10;99.90;;;;;;4162277;28;20095;-42
2022/07/06 04:55:20;;;;;;;3.20;2.50;;;19.00;99.90;;;;;;4164067;28;20057;-42
2022/07/06 04:57:41;;;;;;;2.90;1.75;;;18.90;99.90;;;;;;4163896;28;20103;-42
2022/07/06 05:00:03;;;;;;;2.05;1.80;;;18.80;99.90;;;;;;4163734;28;20100;-43
2022/07/06 05:02:24;;;;;;;1.83;1.73;;;18.90;99.90;;;;;;4163793;28;20052;-42
2022/07/06 05:04:45;;;;;;;1.67;1.60;;;18.90;99.90;;;;;;4163807;28;20056;-42
2022/07/06 05:07:06;;;;;;;2.15;2.00;;;18.80;99.90;;;;;;4158214;28;20049;-43
2022/07/06 05:09:26;;;;;;;5.00;2.30;;;18.90;99.90;;;;;;4163561;28;20076;-42
2022/07/06 05:11:47;;;;;;;7.50;1.85;;;18.90;99.90;;;;;;4163845;28;20060;-42
2022/07/06 05:14:08;;;;;;;1.58;1.48;;;18.90;99.90;;;;;;4163361;28;20139;-42
2022/07/06 05:16:29;;;;;;;2.17;1.95;;;18.90;99.90;;;;;;4163831;28;20055;-44
2022/07/06 05:18:50;;;;;;;1.83;1.73;;;19.00;99.90;;;;;;4147287;28;20056;-43
2022/07/06 05:21:11;;;;;;;2.20;1.75;;;19.10;99.90;;;;;;4156645;28;20048;-41
2022/07/06 05:23:32;;;;;;;2.10;1.60;;;19.10;99.90;;;;;;4161442;28;20100;-44
2022/07/06 05:25:53;;;;;;;1.30;1.20;;;19.20;99.90;;;;;;4163001;28;20064;-44
2022/07/06 05:28:13;;;;;;;4.63;1.52;;;19.30;99.90;;;;;;4147729;28;20108;-44
2022/07/06 05:30:34;;;;;;;2.72;1.33;;;19.30;99.90;;;;;;4147222;28;20176;-46
2022/07/06 05:32:55;;;;;;;3.83;1.60;;;19.50;99.90;;;;;;4157495;28;20273;-44
2022/07/06 05:35:16;;;;;;;2.55;1.42;;;19.60;99.90;;;;;;4160543;28;20053;-44
2022/07/06 05:37:57;;;;;;;1.42;1.33;;;19.70;99.90;;;;;;4147848;28;20107;-44
2022/07/06 05:40:18;;;;;;;1.20;1.10;;;19.90;99.90;;;;;;4153946;28;20500;-45
2022/07/06 05:42:39;;;;;;;2.00;1.80;;;20.00;99.90;;;;;;4154506;28;20080;-45
2022/07/06 05:45:00;;;;;;;2.85;1.20;;;20.10;99.90;;;;;;4155783;28;20043;-44
2022/07/06 05:50:12;;;;;;;2.42;1.45;;;20.30;99.90;;;;;;4154523;28;20048;-44
2022/07/06 05:52:32;;;;;;;1.13;0.98;;;20.50;99.90;;;;;;4163449;28;20060;-45
2022/07/06 05:54:53;;;;;;;6.65;1.88;;;20.70;99.90;;;;;;4163355;28;20055;-43
2022/07/06 05:57:14;;;;;;;2.70;1.10;;;20.80;99.90;;;;;;4163520;28;20408;-46
2022/07/06 05:59:35;;;;;;;1.75;0.90;;;20.90;99.90;;;;;;4163164;28;20056;-44
2022/07/06 06:01:56;;;;;;;0.95;0.95;;;21.00;99.90;;;;;;4161666;28;20048;-44
2022/07/06 06:04:17;;;;;;;2.00;1.35;;;21.10;99.90;;;;;;4153883;28;20049;-44
2022/07/06 06:06:38;;;;;;;0.82;0.80;;;21.30;99.90;;;;;;4163077;28;20092;-43
2022/07/06 06:08:58;;;;;;;4.80;1.00;;;21.50;99.90;;;;;;4148365;28;20860;-45
2022/07/06 06:11:19;;;;;;;1.13;1.00;;;21.60;99.90;;;;;;4157975;28;20495;-44
2022/07/06 06:13:40;;;;;;;3.40;0.90;;;21.80;99.90;;;;;;4160080;28;20484;-44
2022/07/06 06:16:01;;;;;;;1.27;1.17;;;21.90;99.90;;;;;;4151548;28;20106;-45
2022/07/06 06:18:23;;;;;;;1.38;0.95;;;22.00;99.90;;;;;;4160951;28;20060;-45
2022/07/06 06:20:45;;;;;;;1.35;0.90;;;22.20;99.90;;;;;;4161053;28;20052;-43
2022/07/06 06:23:06;;;;;;;1.10;1.00;;;22.30;99.90;;;;;;4158385;28;20045;-44
2022/07/06 06:25:31;;;;;;;3.65;0.90;;;22.50;99.90;;;;;;4161765;28;20095;-45
2022/07/06 06:27:52;;;;;;;1.98;0.88;;;22.70;99.90;;;;;;4162511;28;20099;-45
2022/07/06 06:30:13;;;;;;;3.40;1.10;;;22.90;99.90;;;;;;4155243;28;20532;-46
2022/07/06 06:32:34;;;;;;;2.47;1.00;;;23.10;99.90;;;;;;4162869;28;20142;-47
2022/07/06 06:34:55;;;;;;;1.63;0.77;;;23.30;99.90;;;;;;4162706;28;20103;-45
2022/07/06 06:37:15;;;;;;;0.75;0.75;;;23.50;99.90;;;;;;4162130;28;20071;-45
2022/07/06 06:39:36;;;;;;;2.05;0.80;;;23.80;99.90;;;;;;4161019;28;20277;-45
2022/07/06 06:41:58;;;;;;;1.23;0.90;;;23.90;99.90;;;;;;4160051;28;20555;-46
2022/07/06 06:44:18;;;;;;;1.75;0.90;;;24.00;99.90;;;;;;4161552;28;20242;-44
2022/07/06 06:46:41;;;;;;;1.95;0.70;;;24.20;99.90;;;;;;4159653;28;20128;-46
2022/07/06 06:49:02;;;;;;;3.50;1.60;;;24.40;99.90;;;;;;4162364;28;20175;-44
2022/07/06 06:51:22;;;;;;;0.70;0.70;;;24.60;99.90;;;;;;4162471;28;20965;-46
2022/07/06 06:53:44;;;;;;;3.22;0.70;;;24.70;99.90;;;;;;4157935;28;20053;-46
2022/07/06 06:56:05;;;;;;;1.95;0.70;;;24.90;99.90;;;;;;4156216;28;20072;-46
2022/07/06 06:58:26;;;;;;;7.57;0.70;;;25.00;99.90;;;;;;4160244;28;20119;-44
2022/07/06 07:00:55;;;;;;;0.85;0.60;;;25.30;99.90;;;;;;4157954;28;20369;-44
2022/07/06 07:03:16;;;;;;;1.35;1.10;;;25.40;99.90;;;;;;4150502;28;20060;-45
2022/07/06 07:05:37;;;;;;;1.17;0.60;;;25.40;99.90;;;;;;4157483;28;20096;-44
2022/07/06 07:07:58;;;;;;;0.70;0.70;;;25.60;99.90;;;;;;4157854;28;20312;-46
2022/07/06 07:10:26;;;;;;;2.55;0.70;;;25.90;99.90;;;;;;4157647;28;20041;-44
2022/07/06 07:12:47;;;;;;;3.80;0.60;;;26.10;99.90;;;;;;4160674;28;20515;-46
2022/07/06 07:15:08;;;;;;;1.00;1.00;;;26.30;99.90;;;;;;4160246;28;20137;-45
2022/07/06 07:17:29;;;;;;;1.80;0.60;;;26.50;99.90;;;;;;4159549;28;20055;-45
2022/07/06 07:19:50;;;;;;;1.50;0.70;;;26.70;99.90;;;;;;4160447;28;20055;-45
2022/07/06 07:22:11;;;;;;;1.08;0.60;;;26.80;99.90;;;;;;4154615;28;20272;-45
2022/07/06 07:24:34;;;;;;;1.88;0.65;;;26.80;99.90;;;;;;4159142;28;20196;-45
2022/07/06 07:26:54;;;;;;;0.65;0.63;;;27.00;99.90;;;;;;4157987;28;20451;-45
2022/07/06 07:29:15;;;;;;;0.60;0.60;;;27.10;99.90;;;;;;4159698;28;20133;-44
2022/07/06 07:31:36;;;;;;;4.57;0.60;;;27.30;99.90;;;;;;4159027;28;20049;-45
2022/07/06 07:33:58;;;;;;;1.27;0.60;;;27.30;99.90;;;;;;4160689;28;20108;-45
2022/07/06 07:36:19;;;;;;;2.55;0.68;;;27.50;99.90;;;;;;4158379;28;20106;-45
2022/07/06 07:38:40;;;;;;;1.67;0.50;;;27.60;99.90;;;;;;4154993;28;20080;-46
2022/07/06 07:41:01;;;;;;;0.77;0.50;;;27.80;99.90;;;;;;4159425;28;20601;-45
2022/07/06 07:43:22;;;;;;;4.13;0.50;;;27.90;99.90;;;;;;4159682;28;20045;-45
2022/07/06 07:45:43;;;;;;;0.50;0.50;;;28.00;99.90;;;;;;4156926;28;20153;-46
2022/07/06 07:48:03;;;;;;;0.88;0.50;;;28.20;99.90;;;;;;4159497;28;20076;-45
2022/07/06 07:50:26;;;;;;;1.75;0.45;;;28.10;99.90;;;;;;4158062;28;20095;-45
2022/07/06 07:52:47;;;;;;;2.45;0.60;;;28.50;99.90;;;;;;4157884;28;20114;-45
2022/07/06 07:55:08;;;;;;;0.50;0.50;;;28.80;99.90;;;;;;4157248;28;20129;-45
2022/07/06 07:57:49;;;;;;;1.65;0.45;;;29.20;99.90;;;;;;4158827;28;20047;-45
2022/07/06 08:00:10;;;;;;;2.42;0.50;;;29.10;99.90;;;;;;4160870;28;20051;-46
2022/07/06 08:02:31;;;;;;;3.60;0.52;;;29.10;99.90;;;;;;4153007;28;20559;-48
2022/07/06 08:04:52;;;;;;;1.13;0.50;;;29.10;99.90;;;;;;4156317;28;20099;-45
2022/07/06 08:07:13;;;;;;;1.80;0.50;;;29.20;99.90;;;;;;4158404;28;20068;-45
2022/07/06 08:09:34;;;;;;;0.70;0.50;;;29.20;99.90;;;;;;4158503;28;20052;-45
2022/07/06 08:11:55;;;;;;;3.92;0.90;;;29.70;99.90;;;;;;4160253;28;20053;-44
2022/07/06 08:14:16;;;;;;;0.40;0.40;;;29.60;99.90;;;;;;4159356;28;20148;-45
2022/07/06 08:16:37;;;;;;;0.82;0.50;;;29.30;99.90;;;;;;4158575;28;20095;-44
2022/07/06 08:18:58;;;;;;;0.93;0.43;;;29.80;99.90;;;;;;4159160;28;20057;-46
2022/07/06 08:21:19;;;;;;;1.13;0.50;;;29.90;99.90;;;;;;4158144;28;20087;-45
2022/07/06 08:23:45;;;;;;;0.50;0.40;;;29.80;99.50;;;;;;4158917;28;20095;-45
2022/07/06 08:26:06;;;;;;;2.05;0.50;;;29.80;99.70;;;;;;4156159;28;20277;-45
2022/07/06 08:28:27;;;;;;;0.50;0.40;;;30.00;98.90;;;;;;4157069;28;20048;-45
2022/07/06 08:30:48;;;;;;;0.75;0.40;;;29.90;98.60;;;;;;4151649;28;20056;-47
2022/07/06 08:33:09;;;;;;;1.83;0.40;;;29.70;99.20;;;;;;4160734;28;20060;-46
2022/07/06 08:35:30;;;;;;;0.47;0.40;;;29.80;99.10;;;;;;4152029;28;20080;-45
2022/07/06 08:37:53;;;;;;;0.90;0.50;;;29.80;98.50;;;;;;4152884;28;20061;-46
2022/07/06 08:40:14;;;;;;;2.47;0.40;;;29.80;99.50;;;;;;4160960;28;20456;-46
2022/07/06 08:42:36;;;;;;;0.50;0.40;;;30.20;98.70;;;;;;4159821;28;20055;-45
2022/07/06 08:45:03;;;;;;;0.47;0.40;;;30.40;99.00;;;;;;4159551;28;20543;-46
2022/07/06 08:47:29;;;;;;;0.50;0.40;;;30.60;98.20;;;;;;4153489;28;20044;-45
2022/07/06 08:49:50;;;;;;;1.02;0.40;;;30.80;98.10;;;;;;4161042;28;20481;-44
2022/07/06 08:52:11;;;;;;;2.40;0.40;;;31.00;97.80;;;;;;4160706;28;20519;-44
2022/07/06 08:54:33;;;;;;;1.42;0.40;;;31.20;97.20;;;;;;4160780;28;20048;-46
2022/07/06 08:56:54;;;;;;;3.83;0.40;;;31.20;96.70;;;;;;4160856;28;20129;-44
2022/07/06 08:59:16;;;;;;;1.27;0.33;;;31.30;97.90;;;;;;4160031;28;20564;-46
2022/07/06 09:01:38;;;;;;;0.65;0.30;;;31.40;97.30;;;;;;4160288;28;20433;-45
2022/07/06 09:04:02;;;;;;;0.40;0.40;;;31.50;96.40;;;;;;4147452;28;20096;-46
2022/07/06 09:06:25;;;;;;;0.57;0.40;;;31.50;96.90;;;;;;4152266;28;20126;-45
2022/07/06 09:08:47;;;;;;;1.30;0.32;;;31.30;96.20;;;;;;4160091;28;20095;-47
2022/07/06 09:11:08;;;;;;;0.38;0.30;;;31.30;96.30;;;;;;4160291;28;20115;-44
2022/07/06 09:13:29;;;;;;;2.90;0.60;;;31.10;96.10;;;;;;4158105;28;20602;-45
2022/07/06 09:15:50;;;;;;;1.00;0.40;;;31.10;96.20;;;;;;4158236;28;20068;-45
2022/07/06 09:18:26;;;;;;;0.30;0.30;;;31.30;95.50;;;;;;4159626;28;20132;-46
2022/07/06 09:20:47;;;;;;;0.50;0.40;;;31.30;95.00;;;;;;4159092;28;20115;-44
2022/07/06 09:23:07;;;;;;;0.40;0.30;;;31.40;95.10;;;;;;4158620;28;20103;-47
2022/07/06 09:25:36;;;;;;;1.42;0.40;;;31.60;95.10;;;;;;4161100;28;20104;-46
2022/07/06 09:27:58;;;;;;;0.75;0.32;;;31.40;95.50;;;;;;4158892;28;20044;-46
2022/07/06 09:30:21;;;;;;;1.00;0.38;;;31.60;95.70;;;;;;4160046;28;20087;-45
2022/07/06 09:32:43;;;;;;;;;;;31.40;94.80;;;;;;4159082;28;20412;-45
2022/07/06 09:35:04;;;;;;;0.40;0.40;;;31.50;96.20;;;;;;4151928;28;20294;-46
2022/07/06 09:37:30;;;;;;;0.47;0.43;;;31.90;94.80;;;;;;4146698;28;20150;-46
2022/07/06 09:39:50;;;;;;;3.40;0.40;;;32.10;95.70;;;;;;4159433;28;20061;-45
2022/07/06 09:42:11;;;;;;;2.65;0.40;;;32.30;95.00;;;;;;4162878;28;20393;-46
2022/07/06 09:44:36;;;;;;;0.35;0.30;;;32.40;93.80;;;;;;4160626;28;20048;-47
2022/07/06 09:47:03;;;;;;;0.57;0.30;;;32.10;94.70;;;;;;4162709;28;20566;-45
2022/07/06 09:49:24;;;;;;;0.52;0.30;;;32.40;94.60;;;;;;4159713;28;20968;-45
2022/07/06 09:51:47;;;;;;;2.60;0.40;;;32.40;94.40;;;;;;4149627;28;20512;-47
2022/07/06 09:54:10;;;;;;;1.42;0.30;;;32.30;94.80;;;;;;4160826;28;20131;-46
2022/07/06 09:56:39;;;;;;;0.65;0.45;;;32.40;94.30;;;;;;4162261;28;20519;-46
2022/07/06 09:58:59;;;;;;;1.98;0.40;;;32.30;94.70;;;;;;4157985;28;20428;-45
2022/07/06 10:01:27;;;;;;;0.63;0.30;;;32.40;94.80;;;;;;4160394;28;20416;-45
2022/07/06 10:03:48;;;;;;;0.70;0.40;;;32.20;94.70;;;;;;4154019;28;20044;-46
2022/07/06 10:06:09;;;;;;;0.50;0.30;;;32.30;94.60;;;;;;4156813;28;20572;-44
2022/07/06 10:08:33;;;;;;;2.00;0.40;;;32.50;94.60;;;;;;4159704;28;20084;-45
2022/07/06 10:10:54;;;;;;;2.60;0.30;;;32.50;94.50;;;;;;4162593;28;20060;-45
2022/07/06 10:13:21;;;;;;;1.75;0.30;;;32.50;93.30;;;;;;4161633;28;20049;-44
2022/07/06 10:15:42;;;;;;;0.60;0.30;;;32.10;93.70;;;;;;4162012;28;20061;-46
2022/07/06 10:18:05;;;;;;;3.65;0.40;;;32.40;95.10;;;;;;4162292;28;20115;-46
2022/07/06 10:20:33;;;;;;;2.30;0.30;;;32.80;95.00;;;;;;4162331;28;20516;-47
2022/07/06 10:22:57;;;;;;;1.67;0.38;;;32.80;92.10;;;;;;4159708;28;20586;-45
2022/07/06 10:25:19;;;;;;;1.65;0.30;;;32.90;93.20;;;;;;4161534;28;20531;-44
2022/07/06 10:27:42;;;;;;;2.05;0.30;;;32.80;94.40;;;;;;4161499;28;20109;-45
2022/07/06 10:30:03;;;;;;;0.32;0.30;;;32.80;93.10;;;;;;4162091;28;20111;-48
2022/07/06 10:32:24;;;;;;;0.77;0.30;;;33.00;94.00;;;;;;4162636;28;20124;-47
2022/07/06 10:34:45;;;;;;;0.50;0.40;;;33.00;93.50;;;;;;4162358;28;20076;-45
2022/07/06 10:37:21;;;;;;;0.85;0.30;;;33.00;93.20;;;;;;4162368;28;20061;-46
2022/07/06 10:42:49;;;;;;;0.35;0.30;;;32.60;92.70;;;;;;4154475;28;20064;-45
2022/07/06 10:45:14;;;;;;;0.98;0.50;;;33.00;93.00;;;;;;4154282;28;20048;-45
2022/07/06 10:47:35;;;;;;;1.35;0.55;;;33.20;92.20;;;;;;4157059;28;20128;-45
2022/07/06 10:50:00;;;;;;;0.63;0.40;;;33.10;93.20;;;;;;4158273;28;20052;-45
2022/07/06 10:52:21;;;;;;;0.40;0.30;;;33.20;93.30;;;;;;4159518;28;20152;-46
2022/07/06 10:54:43;;;;;;;0.75;0.30;;;33.00;91.90;;;;;;4158041;28;20056;-45
2022/07/06 10:57:10;;;;;;;0.30;0.30;;;33.10;92.20;;;;;;4162441;28;20076;-46
2022/07/06 10:59:31;;;;;;;0.40;0.30;;;33.00;92.30;;;;;;4160203;28;20428;-46
2022/07/06 11:02:11;;;;;;;0.30;0.30;;;32.90;92.40;;;;;;4159047;28;20056;-45
2022/07/06 11:04:32;;;;;;;1.25;0.60;;;32.50;92.30;;;;;;4154574;28;20056;-45
2022/07/06 11:06:54;;;;;;;1.15;0.30;;;32.40;92.60;;;;;;4161897;28;20052;-45
2022/07/06 11:09:15;;;;;;;1.73;0.30;;;32.40;92.90;;;;;;4161281;28;20149;-45
2022/07/06 11:11:36;;;;;;;0.60;0.40;;;32.20;92.30;;;;;;4161521;28;20104;-46
2022/07/06 11:14:17;;;;;;;2.28;0.40;;;31.60;93.10;;;;;;4160762;28;20370;-45
2022/07/06 11:16:47;;;;;;;3.50;0.40;;;31.10;93.00;;;;;;4148982;28;20060;-46
2022/07/06 11:19:16;;;;;;;3.75;0.40;;;30.80;94.40;;;;;;4155490;28;20060;-45
2022/07/06 11:21:43;;;;;;;0.75;0.45;;;30.60;96.30;;;;;;4145530;28;20145;-44
2022/07/06 11:24:06;;;;;;;2.85;0.60;;;29.90;95.20;;;;;;4155897;28;20134;-45
2022/07/06 11:26:28;;;;;;;2.88;0.50;;;29.10;97.70;;;;;;4151226;28;20044;-48
2022/07/06 11:28:51;;;;;;;6.32;0.70;;;28.40;99.90;;;;;;4158146;28;20139;-56
2022/07/06 11:31:12;;;;;;;3.42;1.30;;;27.20;99.90;;;;;;4157787;28;20099;-56
2022/07/06 11:33:33;;;;;;;9.18;1.27;;;26.00;99.90;;;;;;4160618;28;20540;-57
2022/07/06 11:36:15;;;;;;;9.32;1.10;;;25.40;99.90;;;;;;4156087;28;20048;-56
2022/07/06 11:38:36;;;;;;;2.53;0.83;;;25.20;99.90;;;;;;4157676;28;20103;-57
2022/07/06 11:40:57;;;;;;;5.82;1.25;;;25.20;99.90;;;;;;4161485;28;20059;-47
2022/07/06 11:43:18;;;;;;;6.65;1.55;;;25.00;99.90;;;;;;4160568;28;20103;-46
2022/07/06 11:45:39;;;;;;;4.05;0.80;;;24.20;99.90;;;;;;4153688;28;20361;-48
2022/07/06 11:48:11;;;;;;;1.25;0.70;;;22.70;99.90;;;;;;4153238;28;20049;-46
2022/07/06 11:50:31;;;;;;;1.48;0.70;;;21.40;99.90;;;;;;4155678;28;20487;-46
2022/07/06 11:52:52;;;;;;;0.68;0.60;;;20.40;99.90;;;;;;4161150;28;20044;-44
2022/07/06 11:55:17;;;;;;;1.20;0.75;;;19.40;99.90;;;;;;2587492;22;20056;-84
2022/07/06 11:57:39;;;;;;;5.30;0.70;;;19.20;99.90;;;;;;4180056;28;20059;-84
2022/07/06 12:00:23;;;;;;;2.75;0.80;;;19.30;99.90;;;;;;4172578;28;20119;-84
2022/07/06 12:03:05;;;;;;;1.48;0.85;;;19.20;99.90;;;;;;4144647;28;20640;-84
2022/07/06 12:05:32;;;;;;;1.23;0.90;;;19.40;99.90;;;;;;4145079;28;20917;-84
2022/07/06 12:08:14;;;;;;;0.88;0.88;;;19.30;99.90;;;;;;4143339;28;20139;-84
2022/07/06 12:10:35;;;;;;;1.98;0.80;;;19.40;99.90;;;;;;4131081;28;20410;-83
2022/07/06 12:13:03;;;;;;;5.20;0.90;;;19.80;99.90;;;;;;4144662;28;20060;-83
2022/07/06 12:15:28;;;;;;;1.65;1.55;;;20.40;99.90;;;;;;4131844;28;20651;-83
2022/07/06 12:17:50;;;;;;;2.92;0.82;;;20.80;99.90;;;;;;4144825;28;20096;-84
2022/07/06 12:20:13;;;;;;;1.45;0.90;;;21.10;99.90;;;;;;4145135;28;20060;-84
2022/07/06 12:22:33;;;;;;;1.73;0.80;;;20.90;99.90;;;;;;4145499;28;20056;-84
2022/07/06 12:25:30;;;;;;;1.83;1.00;;;20.90;99.90;;;;;;4130887;28;20053;-84
2022/07/06 12:27:52;;;;;;;1.27;0.60;;;21.10;99.90;;;;;;4078373;29;20182;-84
2022/07/06 12:30:13;;;;;;;3.15;0.70;;;21.30;99.90;;;;;;4080146;29;20055;-84
2022/07/06 12:33:12;;;;;;;4.25;0.80;;;21.50;99.90;;;;;;4078819;29;20050;-84
2022/07/06 12:35:35;;;;;;;1.75;1.00;;;21.60;99.90;;;;;;4049869;29;20063;-84